Surface Preassure
0:00 UTC
12:00 UTC (Click for larger versions)
Andrewsfield Outlook

Current time:


  04:16:34am (GMT)      04:16:34am (UTC)


Headline: Showers, with some hill snow. Brighter in the east. Cold.

Today: Variable cloud, with showers moving into western parts, and perhaps spreading further east at times. Some hill snow likely across the Pennines, with hail possible to lower levels. Brighter spells in the east, but turning breezy and feeling cold. Maximum Temperature 6C.

Tonight: Rather windy and feeling cold, with showers gradually easing. Any snow will become confined to the highest hills, but there will be a chance of icy patches developing by dawn. Minimum Temperature 0C.

Wednesday: Staying windy, with any lingering showers fading during the morning, with sunny spells likely. Cloud then thickening, with a chance of light rain or drizzle later, especially across western hills. Maximum Temperature 8C.

Outlook for Thursday to Saturday: Breezy Thursday, with brighter spells possible in the east, and drizzle across western hills. Very mild. Rain spreading east early Friday, clearing to sunshine and showers. Further rain possible Saturday.

Nearby METAR/TAF

Stansted (EGSS)


Current conditions: MVFR

METAR: EGSS 280350Z AUTO 26011G22KT 9999 -RA BKN011 OVC016 04/02 Q0988

TAF: TAF AMD EGSS 280253Z 2802/2906 27015KT 9999 SCT025 TEMPO 2802/2806 7000 SHRA BKN008

Southend (EGMC)


Current conditions: MVFR

METAR: EGMC 280350Z 24011KT 9999 BKN016 04/03 Q0988

TAF: TAF EGMC 280231Z 2803/2812 26012KT 9999 FEW015 SCT025 PROB30 TEMPO 2803/2806 6000 SHRA BKN012 PROB30 TEMPO 2803/2812 26015G25KT

RAF Wattisham (EGUW)


Current conditions: MVFR

METAR: EGUW 280350Z AUTO 25010KT 9999 -RA FEW007/// BKN018/// 03/03 Q0987

TAF: